createdAt,value
2022-10-03T00:00:02.157Z,67.61
2022-10-03T00:02:28.814Z,67.55
2022-10-03T00:05:00.398Z,67.03
2022-10-03T00:07:40.504Z,66.64
2022-10-03T00:10:22.225Z,66.20
2022-10-03T00:12:54.955Z,66.11
2022-10-03T00:15:22.138Z,66.28
2022-10-03T00:18:10.663Z,65.90
2022-10-03T00:20:46.070Z,65.65
2022-10-03T00:23:15.866Z,65.78
2022-10-03T00:25:42.657Z,65.74
2022-10-03T00:28:09.314Z,65.48
2022-10-03T00:31:02.296Z,65.36
2022-10-03T00:33:28.918Z,65.67
2022-10-03T00:36:01.515Z,65.70
2022-10-03T00:38:31.336Z,68.85
2022-10-03T00:41:16.183Z,70.22
2022-10-03T00:43:43.826Z,69.08
2022-10-03T00:46:16.347Z,68.27
2022-10-03T00:48:52.474Z,69.58
2022-10-03T00:51:27.986Z,68.64
2022-10-03T00:54:00.815Z,68.58
2022-10-03T00:56:40.104Z,67.93
2022-10-03T00:59:06.823Z,67.67
2022-10-03T01:01:34.456Z,67.37
2022-10-03T01:04:01.106Z,67.89
2022-10-03T01:06:41.017Z,69.75
2022-10-03T01:09:07.618Z,68.40
2022-10-03T01:11:54.263Z,68.39
2022-10-03T01:14:33.350Z,67.80
2022-10-03T01:16:59.995Z,67.33
2022-10-03T01:19:48.276Z,67.10
2022-10-03T01:22:29.498Z,66.47
2022-10-03T01:24:59.754Z,66.29
2022-10-03T01:27:32.898Z,66.42
2022-10-03T01:30:21.556Z,66.10
2022-10-03T01:32:53.337Z,66.34
2022-10-03T01:35:38.095Z,65.89
2022-10-03T01:38:04.724Z,66.46
2022-10-03T01:40:34.264Z,67.26
2022-10-03T01:43:12.797Z,67.57
2022-10-03T01:45:48.014Z,67.18
2022-10-03T01:48:21.539Z,67.15
2022-10-03T01:50:50.917Z,67.31
2022-10-03T01:53:27.303Z,66.76
2022-10-03T01:56:00.466Z,66.98
2022-10-03T01:58:37.435Z,67.99
2022-10-03T02:01:23.273Z,67.86
2022-10-03T02:03:56.855Z,67.68
2022-10-03T02:06:53.842Z,68.06
2022-10-03T02:09:26.497Z,68.76
2022-10-03T02:12:02.306Z,68.17
2022-10-03T02:14:28.945Z,68.86
2022-10-03T02:16:59.975Z,69.59
2022-10-03T02:19:29.986Z,69.72
2022-10-03T02:21:58.175Z,69.58
2022-10-03T02:24:37.453Z,68.78
2022-10-03T02:27:22.991Z,69.59
2022-10-03T02:30:08.636Z,69.75
2022-10-03T02:33:01.362Z,68.84
2022-10-03T02:35:47.115Z,68.66
2022-10-03T02:38:17.757Z,68.92
2022-10-03T02:40:51.258Z,68.20
2022-10-03T02:43:36.555Z,67.51
2022-10-03T02:46:09.236Z,68.58
2022-10-03T02:48:38.897Z,68.96
2022-10-03T02:51:14.776Z,67.88
2022-10-03T02:53:42.148Z,68.43
2022-10-03T02:56:27.336Z,68.26
2022-10-03T02:59:02.983Z,69.02
2022-10-03T03:01:48.567Z,69.04
2022-10-03T03:04:33.815Z,68.71
2022-10-03T03:07:15.598Z,68.65
2022-10-03T03:10:00.947Z,68.29
2022-10-03T03:12:41.511Z,68.14
2022-10-03T03:15:27.106Z,68.25
2022-10-03T03:18:02.936Z,67.96
2022-10-03T03:20:40.465Z,67.57
2022-10-03T03:23:07.436Z,68.63
2022-10-03T03:25:52.946Z,67.78
2022-10-03T03:28:38.258Z,68.78
2022-10-03T03:31:05.610Z,67.94
2022-10-03T03:33:32.296Z,67.11
2022-10-03T03:36:06.387Z,67.84
2022-10-03T03:38:49.922Z,67.94
2022-10-03T03:41:42.187Z,68.03
2022-10-03T03:44:09.113Z,67.25
2022-10-03T03:46:54.555Z,66.89
2022-10-03T03:49:24.236Z,66.85
2022-10-03T03:52:29.495Z,66.46
2022-10-03T03:55:08.159Z,68.15
2022-10-03T03:57:37.335Z,70.33
2022-10-03T04:00:24.196Z,68.84
2022-10-03T04:03:03.181Z,70.32
2022-10-03T04:05:29.785Z,70.99
2022-10-03T04:07:56.375Z,70.07
2022-10-03T04:10:31.557Z,72.38
2022-10-03T04:13:01.426Z,72.08
2022-10-03T04:15:30.903Z,71.07
2022-10-03T04:18:28.309Z,70.76
2022-10-03T04:20:56.157Z,70.55
2022-10-03T04:23:44.477Z,70.73
2022-10-03T04:26:29.195Z,70.92
2022-10-03T04:29:08.936Z,71.12
2022-10-03T04:31:43.140Z,70.75
2022-10-03T04:34:28.535Z,71.78
2022-10-03T04:37:04.475Z,70.95
2022-10-03T04:39:49.934Z,70.98
2022-10-03T04:42:16.557Z,71.88
2022-10-03T04:45:08.065Z,71.74
2022-10-03T04:47:48.306Z,70.77
2022-10-03T04:50:21.298Z,70.68
2022-10-03T04:53:06.446Z,69.48
2022-10-03T04:56:10.175Z,69.03
2022-10-03T04:58:39.404Z,68.72
2022-10-03T05:01:15.456Z,68.96
2022-10-03T05:03:47.563Z,68.35
2022-10-03T05:06:20.627Z,69.12
2022-10-03T05:08:47.216Z,68.85
2022-10-03T05:11:33.776Z,68.24
2022-10-03T05:14:24.531Z,69.16
2022-10-03T05:17:07.188Z,70.63
2022-10-03T05:19:36.805Z,69.88
2022-10-03T05:22:08.557Z,70.57
2022-10-03T05:24:56.386Z,72.64
2022-10-03T05:27:36.099Z,72.23
2022-10-03T05:30:09.780Z,71.14
2022-10-03T05:33:07.690Z,70.97
2022-10-03T05:35:44.418Z,70.99
2022-10-03T05:38:11.056Z,71.49
2022-10-03T05:40:40.724Z,71.76
2022-10-03T05:43:16.458Z,70.85
2022-10-03T05:45:49.281Z,72.36
2022-10-03T05:48:31.321Z,67.53
2022-10-03T05:51:13.632Z,64.48
2022-10-03T05:53:57.935Z,59.21
2022-10-03T05:56:27.677Z,55.39
2022-10-03T05:59:33.107Z,51.65
2022-10-03T06:02:18.678Z,51.87
2022-10-03T06:04:48.458Z,50.58
2022-10-03T06:07:29.217Z,50.91
2022-10-03T06:10:11.723Z,49.45
2022-10-03T06:12:45.268Z,50.01
2022-10-03T06:17:58.379Z,47.62
2022-10-03T06:21:05.943Z,45.06
2022-10-03T06:23:52.453Z,45.90
2022-10-03T06:26:39.597Z,45.71
2022-10-03T06:29:25.309Z,45.12
2022-10-03T06:32:10.923Z,45.30
2022-10-03T06:34:56.276Z,45.28
2022-10-03T06:37:25.873Z,43.79
2022-10-03T06:40:16.501Z,43.40
2022-10-03T06:42:56.459Z,42.49
2022-10-03T06:45:41.107Z,41.72
2022-10-03T06:48:26.608Z,41.68
2022-10-03T06:51:12.234Z,44.54
2022-10-03T06:53:41.918Z,44.13
2022-10-03T06:56:22.106Z,44.52
2022-10-03T06:58:58.516Z,44.64
2022-10-03T07:01:44.341Z,44.54
2022-10-03T07:04:11.416Z,44.09
2022-10-03T07:06:41.237Z,42.70
2022-10-03T07:09:11.137Z,45.23
2022-10-03T07:11:56.596Z,45.53
2022-10-03T07:14:53.473Z,44.60
2022-10-03T07:17:34.038Z,45.45
2022-10-03T07:20:20.157Z,45.30
2022-10-03T07:22:48.159Z,44.66
2022-10-03T07:25:26.905Z,44.91
2022-10-03T07:27:56.673Z,46.27
2022-10-03T07:30:30.291Z,46.84
2022-10-03T07:33:15.767Z,44.73
2022-10-03T07:36:20.835Z,45.59
2022-10-03T07:38:59.479Z,44.55
2022-10-03T07:41:44.425Z,45.45
2022-10-03T07:44:30.598Z,43.74
2022-10-03T07:47:20.290Z,44.46
2022-10-03T07:49:48.574Z,43.68
2022-10-03T07:52:41.712Z,42.99
2022-10-03T07:55:27.250Z,42.61
2022-10-03T07:58:03.395Z,42.45
2022-10-03T08:00:42.216Z,41.25
2022-10-03T08:03:32.585Z,43.96
2022-10-03T08:06:08.508Z,44.41
2022-10-03T08:08:50.550Z,43.22
2022-10-03T08:11:22.115Z,43.34
2022-10-03T08:14:08.696Z,43.89
2022-10-03T08:16:50.848Z,44.09
2022-10-03T08:19:33.591Z,43.95
2022-10-03T08:22:12.304Z,44.18
2022-10-03T08:24:42.097Z,42.67
2022-10-03T08:27:21.226Z,43.52
2022-10-03T08:30:06.977Z,41.48
2022-10-03T08:32:36.813Z,42.65
2022-10-03T08:35:22.256Z,42.18
2022-10-03T08:37:51.786Z,43.36
2022-10-03T08:40:34.296Z,42.71
2022-10-03T08:43:03.755Z,44.83
2022-10-03T08:45:51.976Z,43.45
2022-10-03T08:48:21.725Z,42.90
2022-10-03T08:51:07.237Z,40.63
2022-10-03T08:53:51.709Z,41.50
2022-10-03T08:56:22.946Z,40.96
2022-10-03T08:59:05.517Z,40.73
2022-10-03T09:01:51.622Z,41.63
2022-10-03T09:04:40.196Z,39.38
2022-10-03T09:07:18.434Z,39.27
2022-10-03T09:10:01.136Z,39.65
2022-10-03T09:12:43.416Z,37.67
2022-10-03T09:15:28.994Z,36.89
2022-10-03T09:17:58.515Z,37.45
2022-10-03T09:20:51.377Z,37.25
2022-10-03T09:23:18.146Z,38.42
2022-10-03T09:25:47.739Z,37.49
2022-10-03T09:28:20.014Z,36.47
2022-10-03T09:30:52.159Z,38.10
2022-10-03T09:33:39.387Z,36.39
2022-10-03T09:36:21.314Z,36.62
2022-10-03T09:39:00.256Z,35.84
2022-10-03T09:41:45.539Z,36.20
2022-10-03T09:44:31.722Z,38.38
2022-10-03T09:47:23.035Z,38.92
2022-10-03T09:50:22.210Z,34.84
2022-10-03T09:52:51.870Z,36.75
2022-10-03T09:55:24.606Z,37.18
2022-10-03T09:57:54.806Z,36.95
2022-10-03T10:00:34.249Z,34.36
2022-10-03T10:03:04.237Z,34.92
2022-10-03T10:05:40.072Z,36.30
2022-10-03T10:08:30.265Z,35.71
2022-10-03T10:11:15.517Z,33.53
2022-10-03T10:14:07.749Z,34.92
2022-10-03T10:16:49.021Z,34.13
2022-10-03T10:19:22.077Z,35.67
2022-10-03T10:21:48.715Z,34.44
2022-10-03T10:24:27.867Z,35.34
2022-10-03T10:27:20.836Z,36.22
2022-10-03T10:29:59.046Z,34.75
2022-10-03T10:32:28.497Z,34.81
2022-10-03T10:35:15.483Z,35.39
2022-10-03T10:37:46.418Z,36.37
2022-10-03T10:40:33.635Z,36.76
2022-10-03T10:43:04.382Z,36.40
2022-10-03T10:45:49.725Z,38.20
2022-10-03T10:48:34.935Z,37.79
2022-10-03T10:51:20.333Z,37.70
2022-10-03T10:54:05.812Z,35.92
2022-10-03T10:56:35.337Z,36.02
2022-10-03T10:59:20.906Z,35.90
2022-10-03T11:01:59.725Z,38.02
2022-10-03T11:04:50.511Z,37.99
2022-10-03T11:07:23.136Z,37.05
2022-10-03T11:10:09.447Z,34.14
2022-10-03T11:12:56.578Z,36.79
2022-10-03T11:15:43.596Z,36.86
2022-10-03T11:18:10.258Z,36.41
2022-10-03T11:20:42.817Z,36.55
2022-10-03T11:23:28.291Z,36.32
2022-10-03T11:26:25.256Z,38.15
2022-10-03T11:29:04.456Z,36.90
2022-10-03T11:31:50.272Z,36.18
2022-10-03T11:34:23.673Z,36.27
2022-10-03T11:36:59.395Z,38.03
2022-10-03T11:39:38.146Z,37.45
2022-10-03T11:42:04.888Z,38.24
2022-10-03T11:44:37.105Z,38.69
2022-10-03T11:47:22.498Z,37.88
2022-10-03T11:50:00.176Z,38.68
2022-10-03T11:52:45.519Z,37.90
2022-10-03T11:55:21.527Z,37.93
2022-10-03T11:58:08.487Z,37.08
2022-10-03T12:00:37.446Z,37.24
2022-10-03T12:03:21.745Z,38.23
2022-10-03T12:05:48.576Z,38.61
2022-10-03T12:08:52.432Z,37.76
2022-10-03T12:11:19.697Z,37.47
2022-10-03T12:13:46.450Z,37.40
2022-10-03T12:16:22.274Z,38.83
2022-10-03T12:18:49.000Z,38.72
2022-10-03T12:21:23.427Z,38.28
2022-10-03T12:23:56.230Z,37.63
2022-10-03T12:26:31.240Z,37.61
2022-10-03T12:28:58.336Z,37.73
2022-10-03T12:31:41.967Z,37.64
2022-10-03T12:34:33.527Z,36.59
2022-10-03T12:37:17.945Z,37.94
2022-10-03T12:40:01.698Z,36.99
2022-10-03T12:42:47.147Z,36.13
2022-10-03T12:45:23.775Z,37.31
2022-10-03T12:47:56.326Z,38.14
2022-10-03T12:50:43.427Z,36.20
2022-10-03T12:53:13.212Z,35.23
2022-10-03T12:55:45.405Z,36.04
2022-10-03T12:58:33.297Z,34.22
2022-10-03T13:01:03.540Z,36.36
2022-10-03T13:03:33.545Z,34.75
2022-10-03T13:07:02.192Z,37.11
2022-10-03T13:09:34.114Z,37.81
2022-10-03T13:12:08.556Z,35.35
2022-10-03T13:14:44.913Z,35.15
2022-10-03T13:17:14.677Z,36.74
2022-10-03T13:19:51.635Z,35.02
2022-10-03T13:22:18.245Z,35.74
2022-10-03T13:24:57.977Z,35.60
2022-10-03T13:27:36.454Z,35.32
2022-10-03T13:30:14.026Z,35.42
2022-10-03T13:32:47.332Z,35.90
2022-10-03T13:35:35.821Z,32.71
2022-10-03T13:38:17.876Z,32.87
2022-10-03T13:40:56.707Z,34.43
2022-10-03T13:43:36.674Z,33.31
2022-10-03T13:46:13.133Z,34.23
2022-10-03T13:48:40.936Z,33.73
2022-10-03T13:51:22.670Z,33.08
2022-10-03T13:53:53.282Z,32.51
2022-10-03T13:56:24.656Z,33.15
2022-10-03T13:58:51.226Z,34.25
2022-10-03T14:01:18.858Z,34.86
2022-10-03T14:04:07.512Z,34.37
2022-10-03T14:06:43.287Z,34.69
2022-10-03T14:09:28.465Z,36.54
2022-10-03T14:12:07.917Z,36.15
2022-10-03T14:14:46.777Z,36.47
2022-10-03T14:17:32.415Z,38.73
2022-10-03T14:20:08.106Z,39.39
2022-10-03T14:22:39.244Z,39.86
2022-10-03T14:25:11.751Z,40.58
2022-10-03T14:27:49.493Z,41.79
2022-10-03T14:30:18.254Z,41.93
2022-10-03T14:33:00.159Z,42.23
2022-10-03T14:35:56.116Z,42.30
2022-10-03T14:38:51.784Z,41.89
2022-10-03T14:41:24.009Z,42.01
2022-10-03T14:44:00.112Z,42.92
2022-10-03T14:46:32.499Z,44.13
2022-10-03T14:49:04.009Z,43.74
2022-10-03T14:51:47.867Z,43.04
2022-10-03T14:54:17.594Z,44.04
2022-10-03T14:56:48.411Z,45.91
2022-10-03T14:59:35.136Z,45.16
2022-10-03T15:02:21.829Z,44.94
2022-10-03T15:04:49.356Z,43.69
2022-10-03T15:07:16.486Z,44.27
2022-10-03T15:09:47.095Z,44.05
2022-10-03T15:12:23.469Z,44.95
2022-10-03T15:15:06.065Z,43.65
2022-10-03T15:17:44.690Z,44.19
2022-10-03T15:20:12.776Z,43.85
2022-10-03T15:22:42.488Z,44.06
2022-10-03T15:25:14.231Z,44.16
2022-10-03T15:27:42.358Z,43.76
2022-10-03T15:30:19.044Z,43.82
2022-10-03T15:32:47.525Z,43.70
2022-10-03T15:35:25.304Z,44.08
2022-10-03T15:37:52.665Z,43.64
2022-10-03T15:40:39.734Z,45.08
2022-10-03T15:43:13.211Z,44.09
2022-10-03T15:45:41.131Z,44.64
2022-10-03T15:48:13.349Z,43.89
2022-10-03T15:50:43.875Z,43.62
2022-10-03T15:53:35.558Z,43.10
2022-10-03T15:56:03.565Z,42.48
2022-10-03T15:58:36.887Z,43.78
2022-10-03T16:01:17.019Z,44.35
2022-10-03T16:03:51.813Z,43.79
2022-10-03T16:06:21.647Z,43.96
2022-10-03T16:08:54.446Z,43.65
2022-10-03T16:11:23.785Z,45.08
2022-10-03T16:13:56.716Z,44.43
2022-10-03T16:16:42.071Z,44.89
2022-10-03T16:19:24.847Z,45.46
2022-10-03T16:21:52.120Z,45.04
2022-10-03T16:24:22.405Z,44.91
2022-10-03T16:26:54.808Z,46.04
2022-10-03T16:29:36.451Z,45.64
2022-10-03T16:32:06.819Z,45.35
2022-10-03T16:34:36.052Z,46.60
2022-10-03T16:37:04.541Z,46.24
2022-10-03T16:39:35.946Z,46.69
2022-10-03T16:42:20.466Z,45.43
2022-10-03T16:44:47.148Z,46.14
2022-10-03T16:47:14.186Z,44.53
2022-10-03T16:50:10.797Z,46.30
2022-10-03T16:52:38.716Z,47.09
2022-10-03T16:55:07.425Z,45.94
2022-10-03T16:57:44.536Z,45.83
2022-10-03T17:00:16.269Z,46.21
2022-10-03T17:02:43.416Z,46.30
2022-10-03T17:05:13.020Z,46.00
2022-10-03T17:07:51.027Z,48.00
2022-10-03T17:10:23.472Z,47.70
2022-10-03T17:12:53.381Z,47.64
2022-10-03T17:15:22.366Z,47.19
2022-10-03T17:18:03.137Z,47.73
2022-10-03T17:20:54.447Z,48.97
2022-10-03T17:23:21.125Z,47.72
2022-10-03T17:26:00.151Z,47.82
2022-10-03T17:28:32.976Z,47.90
2022-10-03T17:31:02.512Z,48.55
2022-10-03T17:33:35.164Z,48.50
2022-10-03T17:36:20.204Z,48.69
2022-10-03T17:38:50.432Z,48.31
2022-10-03T17:41:40.434Z,48.10
2022-10-03T17:44:13.844Z,49.28
2022-10-03T17:46:45.888Z,49.50
2022-10-03T17:49:12.633Z,48.67
2022-10-03T17:51:41.488Z,48.56
2022-10-03T17:54:39.352Z,48.22
2022-10-03T17:57:21.466Z,47.83
2022-10-03T17:59:55.188Z,48.60
2022-10-03T18:02:44.979Z,48.08
2022-10-03T18:05:19.928Z,48.26
2022-10-03T18:07:49.236Z,49.39
2022-10-03T18:10:21.209Z,49.39
2022-10-03T18:12:52.551Z,50.24
2022-10-03T18:15:28.522Z,49.36
2022-10-03T18:18:04.603Z,49.47
2022-10-03T18:20:34.807Z,49.46
2022-10-03T18:23:08.885Z,50.49
2022-10-03T18:26:19.536Z,53.08
2022-10-03T18:28:56.336Z,52.36
2022-10-03T18:31:24.501Z,51.58
2022-10-03T18:33:51.455Z,50.94
2022-10-03T18:36:27.156Z,51.72
2022-10-03T18:38:57.887Z,52.92
2022-10-03T18:41:25.530Z,51.00
2022-10-03T18:43:58.997Z,51.25
2022-10-03T18:46:30.654Z,53.00
2022-10-03T18:49:30.100Z,51.13
2022-10-03T18:52:00.609Z,52.29
2022-10-03T18:54:35.920Z,51.67
2022-10-03T18:57:10.165Z,50.67
2022-10-03T18:59:36.963Z,50.21
2022-10-03T19:02:06.058Z,50.24
2022-10-03T19:04:39.115Z,50.87
2022-10-03T19:07:17.246Z,51.17
2022-10-03T19:10:03.077Z,50.97
2022-10-03T19:12:33.858Z,51.88
2022-10-03T19:15:00.586Z,51.42
2022-10-03T19:17:32.396Z,51.54
2022-10-03T19:20:19.405Z,51.96
2022-10-03T19:22:59.994Z,50.80
2022-10-03T19:25:27.682Z,50.63
2022-10-03T19:28:15.735Z,50.87
2022-10-03T19:30:43.376Z,52.08
2022-10-03T19:33:17.516Z,51.97
2022-10-03T19:35:47.814Z,51.82
2022-10-03T19:38:17.615Z,51.44
2022-10-03T19:41:03.065Z,51.37
2022-10-03T19:43:40.285Z,51.44
2022-10-03T19:46:11.849Z,50.96
2022-10-03T19:48:44.246Z,52.12
2022-10-03T19:51:20.549Z,53.07
2022-10-03T19:53:51.149Z,52.29
2022-10-03T19:56:18.858Z,52.61
2022-10-03T19:58:47.173Z,52.35
2022-10-03T20:01:14.295Z,52.04
2022-10-03T20:03:47.435Z,52.40
2022-10-03T20:06:25.848Z,52.73
2022-10-03T20:08:52.483Z,51.34
2022-10-03T20:11:22.294Z,51.39
2022-10-03T20:13:49.661Z,51.53
2022-10-03T20:16:18.308Z,51.83
2022-10-03T20:18:47.316Z,51.89
2022-10-03T20:21:17.601Z,50.94
2022-10-03T20:23:44.882Z,51.03
2022-10-03T20:26:26.797Z,50.91
2022-10-03T20:28:59.436Z,49.85
2022-10-03T20:31:28.577Z,50.63
2022-10-03T20:33:57.675Z,51.95
2022-10-03T20:36:29.568Z,51.59
2022-10-03T20:39:02.519Z,50.64
2022-10-03T20:41:41.838Z,51.83
2022-10-03T20:44:28.515Z,52.59
2022-10-03T20:47:03.168Z,52.50
2022-10-03T20:49:32.567Z,52.48
2022-10-03T20:52:04.931Z,53.27
2022-10-03T20:54:48.255Z,52.30
2022-10-03T20:57:14.928Z,52.42
2022-10-03T20:59:46.871Z,52.80
2022-10-03T21:02:16.696Z,55.28
2022-10-03T21:05:04.826Z,55.55
2022-10-03T21:07:31.486Z,56.13
2022-10-03T21:10:18.340Z,59.25
2022-10-03T21:12:47.986Z,57.12
2022-10-03T21:15:30.102Z,57.40
2022-10-03T21:17:57.497Z,56.49
2022-10-03T21:20:27.695Z,55.80
2022-10-03T21:22:56.053Z,56.23
2022-10-03T21:25:29.227Z,55.81
2022-10-03T21:27:57.444Z,55.54
2022-10-03T21:30:45.652Z,55.71
2022-10-03T21:33:18.337Z,54.90
2022-10-03T21:35:45.168Z,54.50
2022-10-03T21:38:17.307Z,55.68
2022-10-03T21:40:55.733Z,57.98
2022-10-03T21:43:28.097Z,57.40
2022-10-03T21:46:11.323Z,56.92
2022-10-03T21:48:45.727Z,57.38
2022-10-03T21:51:32.614Z,59.61
2022-10-03T21:54:05.164Z,57.46
2022-10-03T21:56:44.086Z,59.83
2022-10-03T21:59:18.855Z,59.58
2022-10-03T22:02:08.847Z,58.93
2022-10-03T22:04:35.606Z,58.10
2022-10-03T22:07:16.386Z,58.04
2022-10-03T22:09:50.406Z,57.64
2022-10-03T22:12:18.073Z,57.45
2022-10-03T22:14:49.207Z,57.67
2022-10-03T22:17:16.436Z,57.34
2022-10-03T22:19:46.119Z,57.01
2022-10-03T22:22:20.418Z,57.27
2022-10-03T22:24:52.819Z,57.63
2022-10-03T22:27:38.013Z,59.30
2022-10-03T22:30:09.287Z,57.22
2022-10-03T22:32:44.580Z,58.96
2022-10-03T22:35:33.065Z,61.64
2022-10-03T22:38:00.255Z,59.31
2022-10-03T22:40:28.694Z,59.99
2022-10-03T22:42:57.386Z,59.10
2022-10-03T22:45:25.492Z,58.07
2022-10-03T22:47:54.425Z,59.48
2022-10-03T22:50:25.191Z,59.13
2022-10-03T22:52:52.334Z,59.76
2022-10-03T22:55:22.737Z,58.44
2022-10-03T22:57:51.005Z,58.80
2022-10-03T23:00:22.108Z,59.88
2022-10-03T23:02:53.127Z,61.32
2022-10-03T23:05:38.945Z,62.01
2022-10-03T23:08:32.809Z,61.61
2022-10-03T23:11:01.488Z,61.77
2022-10-03T23:13:36.989Z,61.22
2022-10-03T23:16:12.770Z,64.48
2022-10-03T23:18:59.662Z,61.33
2022-10-03T23:21:26.817Z,61.04
2022-10-03T23:23:58.726Z,61.42
2022-10-03T23:26:28.454Z,61.89
2022-10-03T23:29:04.337Z,62.06
2022-10-03T23:31:49.658Z,60.85
2022-10-03T23:34:34.531Z,62.13
2022-10-03T23:37:04.989Z,61.64
2022-10-03T23:39:33.176Z,63.54
2022-10-03T23:42:01.173Z,64.01
2022-10-03T23:44:48.276Z,62.02
2022-10-03T23:47:17.305Z,61.89
2022-10-03T23:49:45.387Z,61.57
2022-10-03T23:52:32.865Z,61.73
2022-10-03T23:55:02.769Z,62.44
2022-10-03T23:57:37.867Z,62.24
